sensor_id;sensor_type;location;lat;lon;timestamp;pressure;altitude;pressure_sealevel;temperature;humidity
6198;BME280;3132;42.622;23.328;2023-12-04T00:01:45;93131.00;;;1.03;77.65
6198;BME280;3132;42.622;23.328;2023-12-04T00:04:11;93137.88;;;0.78;80.77
6198;BME280;3132;42.622;23.328;2023-12-04T00:06:37;93145.56;;;1.16;78.17
6198;BME280;3132;42.622;23.328;2023-12-04T00:09:02;93146.88;;;1.25;79.99
6198;BME280;3132;42.622;23.328;2023-12-04T00:11:27;93136.94;;;1.28;81.28
6198;BME280;3132;42.622;23.328;2023-12-04T00:13:53;93142.56;;;1.43;82.13
6198;BME280;3132;42.622;23.328;2023-12-04T00:16:18;93152.50;;;1.40;82.47
6198;BME280;3132;42.622;23.328;2023-12-04T00:18:44;93143.72;;;1.47;81.21
6198;BME280;3132;42.622;23.328;2023-12-04T00:21:09;93161.78;;;1.65;80.25
6198;BME280;3132;42.622;23.328;2023-12-04T00:23:34;93164.41;;;1.03;83.01
6198;BME280;3132;42.622;23.328;2023-12-04T00:26:00;93177.75;;;0.87;83.84
6198;BME280;3132;42.622;23.328;2023-12-04T00:28:25;93181.72;;;0.83;80.50
6198;BME280;3132;42.622;23.328;2023-12-04T00:30:50;93178.38;;;1.14;79.74
6198;BME280;3132;42.622;23.328;2023-12-04T00:33:16;93177.63;;;1.13;76.14
6198;BME280;3132;42.622;23.328;2023-12-04T00:35:41;93179.00;;;0.72;75.59
6198;BME280;3132;42.622;23.328;2023-12-04T00:38:06;93186.28;;;0.81;72.38
6198;BME280;3132;42.622;23.328;2023-12-04T00:40:32;93170.78;;;0.63;71.74
6198;BME280;3132;42.622;23.328;2023-12-04T00:42:58;93184.06;;;0.91;72.61
6198;BME280;3132;42.622;23.328;2023-12-04T00:45:23;93189.38;;;0.59;68.26
6198;BME280;3132;42.622;23.328;2023-12-04T00:47:49;93187.03;;;0.44;68.00
6198;BME280;3132;42.622;23.328;2023-12-04T00:50:14;93193.38;;;0.42;68.12
6198;BME280;3132;42.622;23.328;2023-12-04T00:52:40;93186.84;;;0.46;67.96
6198;BME280;3132;42.622;23.328;2023-12-04T00:55:05;93193.44;;;0.22;67.57
6198;BME280;3132;42.622;23.328;2023-12-04T00:57:31;93189.09;;;0.16;66.94
6198;BME280;3132;42.622;23.328;2023-12-04T00:59:56;93198.00;;;0.20;66.46
6198;BME280;3132;42.622;23.328;2023-12-04T01:02:21;93194.84;;;0.18;68.22
6198;BME280;3132;42.622;23.328;2023-12-04T01:04:47;93187.19;;;-0.08;68.37
6198;BME280;3132;42.622;23.328;2023-12-04T01:07:12;93191.72;;;-0.04;69.43
6198;BME280;3132;42.622;23.328;2023-12-04T01:09:38;93189.56;;;-0.07;70.06
6198;BME280;3132;42.622;23.328;2023-12-04T01:12:03;93183.84;;;-0.02;69.47
6198;BME280;3132;42.622;23.328;2023-12-04T01:14:29;93192.69;;;0.09;69.92
6198;BME280;3132;42.622;23.328;2023-12-04T01:16:54;93202.97;;;-0.05;70.65
6198;BME280;3132;42.622;23.328;2023-12-04T01:19:19;93201.41;;;-0.12;70.73
6198;BME280;3132;42.622;23.328;2023-12-04T01:21:45;93206.34;;;-0.17;73.07
6198;BME280;3132;42.622;23.328;2023-12-04T01:24:10;93203.19;;;-0.19;73.19
6198;BME280;3132;42.622;23.328;2023-12-04T01:26:36;93185.03;;;-0.24;74.46
6198;BME280;3132;42.622;23.328;2023-12-04T01:29:01;93199.22;;;0.05;74.66
6198;BME280;3132;42.622;23.328;2023-12-04T01:31:27;93206.91;;;0.05;74.46
6198;BME280;3132;42.622;23.328;2023-12-04T01:33:52;93214.47;;;-0.27;75.09
6198;BME280;3132;42.622;23.328;2023-12-04T01:36:17;93207.34;;;-0.31;75.41
6198;BME280;3132;42.622;23.328;2023-12-04T01:38:43;93206.53;;;-0.19;74.18
6198;BME280;3132;42.622;23.328;2023-12-04T01:41:08;93219.59;;;-0.40;75.00
6198;BME280;3132;42.622;23.328;2023-12-04T01:43:33;93201.81;;;-0.54;76.67
6198;BME280;3132;42.622;23.328;2023-12-04T01:46:00;93198.09;;;-0.58;75.55
6198;BME280;3132;42.622;23.328;2023-12-04T01:48:26;93210.09;;;-0.26;76.84
6198;BME280;3132;42.622;23.328;2023-12-04T01:50:52;93220.75;;;-0.55;77.17
6198;BME280;3132;42.622;23.328;2023-12-04T01:53:18;93208.16;;;-0.44;77.32
6198;BME280;3132;42.622;23.328;2023-12-04T01:55:44;93213.66;;;-0.53;77.20
6198;BME280;3132;42.622;23.328;2023-12-04T01:58:10;93201.84;;;-0.67;79.02
6198;BME280;3132;42.622;23.328;2023-12-04T02:00:36;93196.88;;;-0.75;79.15
6198;BME280;3132;42.622;23.328;2023-12-04T02:03:02;93205.97;;;-0.60;78.94
6198;BME280;3132;42.622;23.328;2023-12-04T02:05:28;93204.97;;;-0.72;78.13
6198;BME280;3132;42.622;23.328;2023-12-04T02:07:54;93223.50;;;-0.63;79.22
6198;BME280;3132;42.622;23.328;2023-12-04T02:10:21;93222.72;;;-0.64;79.84
6198;BME280;3132;42.622;23.328;2023-12-04T02:12:46;93218.00;;;-0.60;79.11
6198;BME280;3132;42.622;23.328;2023-12-04T02:15:11;93223.53;;;-0.57;78.52
6198;BME280;3132;42.622;23.328;2023-12-04T02:17:39;93223.50;;;-0.76;75.83
6198;BME280;3132;42.622;23.328;2023-12-04T02:20:05;93221.56;;;-0.35;75.12
6198;BME280;3132;42.622;23.328;2023-12-04T02:22:30;93217.56;;;-0.83;76.76
6198;BME280;3132;42.622;23.328;2023-12-04T02:24:56;93225.06;;;-0.62;77.28
6198;BME280;3132;42.622;23.328;2023-12-04T02:27:40;93231.38;;;-0.71;77.86
6198;BME280;3132;42.622;23.328;2023-12-04T02:30:09;93218.19;;;-0.75;78.11
6198;BME280;3132;42.622;23.328;2023-12-04T02:32:38;93235.72;;;-0.65;77.96
6198;BME280;3132;42.622;23.328;2023-12-04T02:35:08;93225.28;;;-0.64;77.42
6198;BME280;3132;42.622;23.328;2023-12-04T02:37:34;93240.09;;;-0.59;76.14
6198;BME280;3132;42.622;23.328;2023-12-04T02:40:00;93235.53;;;-0.64;75.78
6198;BME280;3132;42.622;23.328;2023-12-04T02:42:26;93239.84;;;-0.84;71.91
6198;BME280;3132;42.622;23.328;2023-12-04T02:44:51;93231.38;;;-0.91;70.85
6198;BME280;3132;42.622;23.328;2023-12-04T02:47:17;93238.84;;;-0.89;67.15
6198;BME280;3132;42.622;23.328;2023-12-04T02:49:43;93248.75;;;-0.80;67.70
6198;BME280;3132;42.622;23.328;2023-12-04T02:52:08;93255.03;;;-0.89;68.88
6198;BME280;3132;42.622;23.328;2023-12-04T02:54:34;93247.16;;;-0.87;70.15
6198;BME280;3132;42.622;23.328;2023-12-04T02:56:59;93234.34;;;-0.87;71.37
6198;BME280;3132;42.622;23.328;2023-12-04T02:59:24;93237.28;;;-0.77;70.27
6198;BME280;3132;42.622;23.328;2023-12-04T03:01:49;93243.19;;;-0.90;71.47
6198;BME280;3132;42.622;23.328;2023-12-04T03:04:15;93243.16;;;-0.96;71.65
6198;BME280;3132;42.622;23.328;2023-12-04T03:06:40;93220.66;;;-1.20;70.35
6198;BME280;3132;42.622;23.328;2023-12-04T03:09:06;93238.44;;;-0.99;69.32
6198;BME280;3132;42.622;23.328;2023-12-04T03:11:31;93247.72;;;-0.98;69.94
6198;BME280;3132;42.622;23.328;2023-12-04T03:13:57;93242.81;;;-0.80;70.88
6198;BME280;3132;42.622;23.328;2023-12-04T03:16:23;93243.63;;;-0.80;71.13
6198;BME280;3132;42.622;23.328;2023-12-04T03:18:48;93243.22;;;-0.64;71.12
6198;BME280;3132;42.622;23.328;2023-12-04T03:21:13;93219.34;;;-0.84;70.58
6198;BME280;3132;42.622;23.328;2023-12-04T03:23:39;93233.16;;;-0.65;70.76
6198;BME280;3132;42.622;23.328;2023-12-04T03:26:04;93235.53;;;-0.70;71.43
6198;BME280;3132;42.622;23.328;2023-12-04T03:28:30;93238.50;;;-0.73;69.88
6198;BME280;3132;42.622;23.328;2023-12-04T03:30:55;93253.50;;;-0.51;69.57
6198;BME280;3132;42.622;23.328;2023-12-04T03:33:20;93253.28;;;-0.75;69.29
6198;BME280;3132;42.622;23.328;2023-12-04T03:35:46;93247.53;;;-0.90;70.12
6198;BME280;3132;42.622;23.328;2023-12-04T03:38:11;93255.06;;;-0.69;70.33
6198;BME280;3132;42.622;23.328;2023-12-04T03:40:37;93240.22;;;-0.93;71.51
6198;BME280;3132;42.622;23.328;2023-12-04T03:43:02;93261.34;;;-0.78;71.96
6198;BME280;3132;42.622;23.328;2023-12-04T03:45:27;93268.59;;;-0.95;73.53
6198;BME280;3132;42.622;23.328;2023-12-04T03:47:53;93268.06;;;-0.77;74.06
6198;BME280;3132;42.622;23.328;2023-12-04T03:50:19;93271.94;;;-0.94;73.75
6198;BME280;3132;42.622;23.328;2023-12-04T03:52:44;93264.88;;;-0.86;73.20
6198;BME280;3132;42.622;23.328;2023-12-04T03:55:09;93255.78;;;-1.01;74.11
6198;BME280;3132;42.622;23.328;2023-12-04T03:57:35;93273.94;;;-0.90;75.08
6198;BME280;3132;42.622;23.328;2023-12-04T04:00:00;93271.56;;;-0.91;74.70
6198;BME280;3132;42.622;23.328;2023-12-04T04:02:26;93280.47;;;-0.87;75.38
6198;BME280;3132;42.622;23.328;2023-12-04T04:04:52;93279.41;;;-1.12;75.98
6198;BME280;3132;42.622;23.328;2023-12-04T04:07:17;93272.66;;;-1.13;77.21
6198;BME280;3132;42.622;23.328;2023-12-04T04:09:43;93273.31;;;-1.05;77.27
6198;BME280;3132;42.622;23.328;2023-12-04T04:12:09;93267.72;;;-1.21;76.42
6198;BME280;3132;42.622;23.328;2023-12-04T04:14:34;93277.38;;;-1.23;77.77
6198;BME280;3132;42.622;23.328;2023-12-04T04:17:00;93270.53;;;-1.10;78.71
6198;BME280;3132;42.622;23.328;2023-12-04T04:19:25;93282.16;;;-1.07;76.25
6198;BME280;3132;42.622;23.328;2023-12-04T04:21:50;93281.75;;;-1.17;77.05
6198;BME280;3132;42.622;23.328;2023-12-04T04:24:16;93288.91;;;-0.93;77.27
6198;BME280;3132;42.622;23.328;2023-12-04T04:26:41;93289.66;;;-0.99;76.15
6198;BME280;3132;42.622;23.328;2023-12-04T04:29:06;93273.81;;;-1.22;74.32
6198;BME280;3132;42.622;23.328;2023-12-04T04:31:32;93301.84;;;-1.14;74.26
6198;BME280;3132;42.622;23.328;2023-12-04T04:33:57;93301.47;;;-1.11;72.83
6198;BME280;3132;42.622;23.328;2023-12-04T04:36:22;93298.97;;;-0.85;74.24
6198;BME280;3132;42.622;23.328;2023-12-04T04:38:48;93302.31;;;-0.91;73.68
6198;BME280;3132;42.622;23.328;2023-12-04T04:41:16;93304.88;;;-0.91;71.32
6198;BME280;3132;42.622;23.328;2023-12-04T04:43:42;93302.09;;;-1.03;71.12
6198;BME280;3132;42.622;23.328;2023-12-04T04:46:07;93282.97;;;-1.00;75.15
6198;BME280;3132;42.622;23.328;2023-12-04T04:48:33;93305.47;;;-0.89;71.95
6198;BME280;3132;42.622;23.328;2023-12-04T04:50:58;93328.00;;;-0.78;70.96
6198;BME280;3132;42.622;23.328;2023-12-04T04:53:23;93303.09;;;-0.97;71.21
6198;BME280;3132;42.622;23.328;2023-12-04T04:55:48;93315.72;;;-0.89;71.12
6198;BME280;3132;42.622;23.328;2023-12-04T04:58:14;93336.47;;;-0.71;71.20
6198;BME280;3132;42.622;23.328;2023-12-04T05:00:40;93333.88;;;-0.84;71.40
6198;BME280;3132;42.622;23.328;2023-12-04T05:03:05;93314.16;;;-0.90;70.60
6198;BME280;3132;42.622;23.328;2023-12-04T05:05:30;93307.56;;;-1.12;73.83
6198;BME280;3132;42.622;23.328;2023-12-04T05:07:56;93331.88;;;-0.95;71.46
6198;BME280;3132;42.622;23.328;2023-12-04T05:10:21;93331.25;;;-1.04;72.45
6198;BME280;3132;42.622;23.328;2023-12-04T05:12:46;93304.84;;;-1.04;73.55
6198;BME280;3132;42.622;23.328;2023-12-04T05:15:12;93327.25;;;-0.59;72.71
6198;BME280;3132;42.622;23.328;2023-12-04T05:17:37;93324.22;;;-0.82;73.00
6198;BME280;3132;42.622;23.328;2023-12-04T05:20:02;93328.34;;;-0.88;71.99
6198;BME280;3132;42.622;23.328;2023-12-04T05:22:28;93307.97;;;-1.09;71.66
6198;BME280;3132;42.622;23.328;2023-12-04T05:24:53;93350.41;;;-0.93;70.84
6198;BME280;3132;42.622;23.328;2023-12-04T05:27:19;93327.63;;;-1.22;70.08
6198;BME280;3132;42.622;23.328;2023-12-04T05:29:44;93350.38;;;-1.00;70.84
6198;BME280;3132;42.622;23.328;2023-12-04T05:32:09;93339.44;;;-1.21;69.95
6198;BME280;3132;42.622;23.328;2023-12-04T05:34:35;93348.75;;;-1.07;70.25
6198;BME280;3132;42.622;23.328;2023-12-04T05:37:00;93344.19;;;-1.18;68.99
6198;BME280;3132;42.622;23.328;2023-12-04T05:39:25;93344.72;;;-1.29;67.62
6198;BME280;3132;42.622;23.328;2023-12-04T05:41:51;93330.09;;;-1.01;71.89
6198;BME280;3132;42.622;23.328;2023-12-04T05:44:16;93361.94;;;-1.10;65.67
6198;BME280;3132;42.622;23.328;2023-12-04T05:46:41;93363.09;;;-1.19;66.18
6198;BME280;3132;42.622;23.328;2023-12-04T05:49:07;93349.16;;;-1.04;66.25
6198;BME280;3132;42.622;23.328;2023-12-04T05:51:32;93339.06;;;-1.18;65.16
6198;BME280;3132;42.622;23.328;2023-12-04T05:53:58;93354.34;;;-0.97;65.89
6198;BME280;3132;42.622;23.328;2023-12-04T05:56:23;93346.81;;;-1.05;64.83
6198;BME280;3132;42.622;23.328;2023-12-04T05:58:48;93360.22;;;-1.03;64.94
6198;BME280;3132;42.622;23.328;2023-12-04T06:01:14;93350.59;;;-0.95;65.41
6198;BME280;3132;42.622;23.328;2023-12-04T06:03:40;93365.59;;;-0.85;66.91
6198;BME280;3132;42.622;23.328;2023-12-04T06:06:06;93369.53;;;-0.89;68.26
6198;BME280;3132;42.622;23.328;2023-12-04T06:08:31;93364.50;;;-1.10;70.61
6198;BME280;3132;42.622;23.328;2023-12-04T06:10:56;93364.13;;;-1.14;72.25
6198;BME280;3132;42.622;23.328;2023-12-04T06:13:23;93357.00;;;-1.12;73.25
6198;BME280;3132;42.622;23.328;2023-12-04T06:15:48;93372.72;;;-1.21;75.55
6198;BME280;3132;42.622;23.328;2023-12-04T06:18:13;93363.25;;;-1.27;74.44
6198;BME280;3132;42.622;23.328;2023-12-04T06:20:39;93370.91;;;-1.27;77.38
6198;BME280;3132;42.622;23.328;2023-12-04T06:23:04;93378.59;;;-1.27;75.02
6198;BME280;3132;42.622;23.328;2023-12-04T06:25:30;93377.50;;;-1.18;74.84
6198;BME280;3132;42.622;23.328;2023-12-04T06:27:56;93380.97;;;-0.85;74.51
6198;BME280;3132;42.622;23.328;2023-12-04T06:30:21;93378.03;;;-0.89;73.32
6198;BME280;3132;42.622;23.328;2023-12-04T06:32:47;93381.38;;;-0.88;71.36
6198;BME280;3132;42.622;23.328;2023-12-04T06:35:13;93377.84;;;-0.87;71.35
6198;BME280;3132;42.622;23.328;2023-12-04T06:37:38;93385.59;;;-0.68;69.38
6198;BME280;3132;42.622;23.328;2023-12-04T06:40:05;93389.31;;;-0.77;68.92
6198;BME280;3132;42.622;23.328;2023-12-04T06:42:34;93367.59;;;-0.87;69.58
6198;BME280;3132;42.622;23.328;2023-12-04T06:45:00;93397.97;;;-0.84;65.98
6198;BME280;3132;42.622;23.328;2023-12-04T06:47:26;93406.94;;;-0.54;65.24
6198;BME280;3132;42.622;23.328;2023-12-04T06:49:52;93405.59;;;-0.50;65.30
6198;BME280;3132;42.622;23.328;2023-12-04T06:52:17;93404.53;;;-0.69;64.50
6198;BME280;3132;42.622;23.328;2023-12-04T06:54:43;93402.84;;;-0.89;66.21
6198;BME280;3132;42.622;23.328;2023-12-04T06:57:08;93407.06;;;-0.75;65.73
6198;BME280;3132;42.622;23.328;2023-12-04T06:59:33;93397.13;;;-0.91;67.00
6198;BME280;3132;42.622;23.328;2023-12-04T07:01:59;93406.47;;;-0.77;66.65
6198;BME280;3132;42.622;23.328;2023-12-04T07:04:24;93415.19;;;-0.65;66.20
6198;BME280;3132;42.622;23.328;2023-12-04T07:06:49;93413.03;;;-0.62;67.60
6198;BME280;3132;42.622;23.328;2023-12-04T07:09:16;93417.53;;;-0.64;65.68
6198;BME280;3132;42.622;23.328;2023-12-04T07:11:44;93432.66;;;-0.35;66.12
6198;BME280;3132;42.622;23.328;2023-12-04T07:14:09;93429.97;;;-0.07;64.87
6198;BME280;3132;42.622;23.328;2023-12-04T07:16:39;93428.84;;;0.22;64.43
6198;BME280;3132;42.622;23.328;2023-12-04T07:19:05;93429.53;;;-0.17;66.33
6198;BME280;3132;42.622;23.328;2023-12-04T07:21:31;93420.53;;;0.20;64.65
6198;BME280;3132;42.622;23.328;2023-12-04T07:23:56;93417.94;;;-0.07;65.60
6198;BME280;3132;42.622;23.328;2023-12-04T07:26:21;93424.81;;;-0.27;64.93
6198;BME280;3132;42.622;23.328;2023-12-04T07:28:47;93430.34;;;-0.10;64.31
6198;BME280;3132;42.622;23.328;2023-12-04T07:31:12;93424.25;;;-0.03;65.33
6198;BME280;3132;42.622;23.328;2023-12-04T07:33:37;93429.03;;;0.14;64.71
6198;BME280;3132;42.622;23.328;2023-12-04T07:36:03;93432.66;;;-0.35;67.03
6198;BME280;3132;42.622;23.328;2023-12-04T07:38:28;93434.75;;;0.09;66.82
6198;BME280;3132;42.622;23.328;2023-12-04T07:40:54;93428.78;;;-0.11;64.91
6198;BME280;3132;42.622;23.328;2023-12-04T07:43:19;93427.63;;;0.05;66.08
6198;BME280;3132;42.622;23.328;2023-12-04T07:45:45;93430.19;;;0.11;65.21
6198;BME280;3132;42.622;23.328;2023-12-04T07:48:10;93439.63;;;-0.09;65.79
6198;BME280;3132;42.622;23.328;2023-12-04T07:50:35;93426.47;;;0.20;64.90
6198;BME280;3132;42.622;23.328;2023-12-04T07:53:02;93431.19;;;0.17;64.05
6198;BME280;3132;42.622;23.328;2023-12-04T07:55:28;93423.47;;;0.10;64.79
6198;BME280;3132;42.622;23.328;2023-12-04T07:57:54;93442.63;;;0.14;64.13
6198;BME280;3132;42.622;23.328;2023-12-04T08:00:21;93444.66;;;0.38;62.93
6198;BME280;3132;42.622;23.328;2023-12-04T08:02:48;93430.91;;;-0.28;62.66
6198;BME280;3132;42.622;23.328;2023-12-04T08:05:13;93450.38;;;0.34;62.54
6198;BME280;3132;42.622;23.328;2023-12-04T08:07:39;93459.28;;;0.70;61.30
6198;BME280;3132;42.622;23.328;2023-12-04T08:10:05;93416.59;;;0.17;62.45
6198;BME280;3132;42.622;23.328;2023-12-04T08:12:31;93446.59;;;0.30;63.78
6198;BME280;3132;42.622;23.328;2023-12-04T08:14:57;93430.81;;;0.33;63.54
6198;BME280;3132;42.622;23.328;2023-12-04T08:17:22;93453.75;;;0.67;63.82
6198;BME280;3132;42.622;23.328;2023-12-04T08:19:47;93457.31;;;0.46;64.35
6198;BME280;3132;42.622;23.328;2023-12-04T08:22:13;93454.50;;;0.15;64.29
6198;BME280;3132;42.622;23.328;2023-12-04T08:24:38;93433.09;;;-0.18;61.64
6198;BME280;3132;42.622;23.328;2023-12-04T08:27:04;93450.47;;;-0.27;63.47
6198;BME280;3132;42.622;23.328;2023-12-04T08:29:29;93451.66;;;-0.16;64.59
6198;BME280;3132;42.622;23.328;2023-12-04T08:31:54;93455.59;;;-0.14;65.53
6198;BME280;3132;42.622;23.328;2023-12-04T08:34:20;93446.91;;;-0.19;66.13
6198;BME280;3132;42.622;23.328;2023-12-04T08:36:45;93461.59;;;0.00;66.64
6198;BME280;3132;42.622;23.328;2023-12-04T08:39:10;93460.25;;;0.17;65.36
6198;BME280;3132;42.622;23.328;2023-12-04T08:41:36;93458.28;;;0.45;64.88
6198;BME280;3132;42.622;23.328;2023-12-04T08:44:02;93454.31;;;0.43;64.13
6198;BME280;3132;42.622;23.328;2023-12-04T08:46:27;93456.09;;;0.29;62.26
6198;BME280;3132;42.622;23.328;2023-12-04T08:48:53;93458.63;;;0.16;63.58
6198;BME280;3132;42.622;23.328;2023-12-04T08:51:18;93442.84;;;0.19;63.33
6198;BME280;3132;42.622;23.328;2023-12-04T08:53:44;93449.75;;;0.25;64.50
6198;BME280;3132;42.622;23.328;2023-12-04T08:56:10;93437.09;;;0.04;63.28
6198;BME280;3132;42.622;23.328;2023-12-04T08:58:36;93452.53;;;0.30;63.49
6198;BME280;3132;42.622;23.328;2023-12-04T09:01:02;93452.34;;;0.64;62.55
6198;BME280;3132;42.622;23.328;2023-12-04T09:03:27;93461.25;;;0.68;60.50
6198;BME280;3132;42.622;23.328;2023-12-04T09:05:52;93449.19;;;0.49;60.26
6198;BME280;3132;42.622;23.328;2023-12-04T09:08:22;93452.94;;;0.60;58.19
6198;BME280;3132;42.622;23.328;2023-12-04T09:10:47;93440.09;;;0.60;57.44
6198;BME280;3132;42.622;23.328;2023-12-04T09:13:14;93441.47;;;0.88;58.93
6198;BME280;3132;42.622;23.328;2023-12-04T09:15:39;93450.41;;;0.79;58.91
6198;BME280;3132;42.622;23.328;2023-12-04T09:18:05;93444.81;;;1.02;59.86
6198;BME280;3132;42.622;23.328;2023-12-04T09:20:30;93419.72;;;0.97;59.60
6198;BME280;3132;42.622;23.328;2023-12-04T09:22:56;93437.66;;;1.23;60.03
6198;BME280;3132;42.622;23.328;2023-12-04T09:25:21;93436.75;;;0.85;59.31
6198;BME280;3132;42.622;23.328;2023-12-04T09:27:46;93413.22;;;0.75;59.33
6198;BME280;3132;42.622;23.328;2023-12-04T09:30:12;93433.97;;;0.93;58.97
6198;BME280;3132;42.622;23.328;2023-12-04T09:32:39;93414.97;;;1.07;59.17
6198;BME280;3132;42.622;23.328;2023-12-04T09:35:04;93410.25;;;0.78;58.22
6198;BME280;3132;42.622;23.328;2023-12-04T09:37:30;93401.13;;;0.95;59.39
6198;BME280;3132;42.622;23.328;2023-12-04T09:39:55;93429.00;;;1.05;58.86
6198;BME280;3132;42.622;23.328;2023-12-04T09:42:21;93420.31;;;0.99;59.08
6198;BME280;3132;42.622;23.328;2023-12-04T09:44:48;93434.25;;;1.29;58.98
6198;BME280;3132;42.622;23.328;2023-12-04T09:47:17;93424.88;;;1.54;57.37
6198;BME280;3132;42.622;23.328;2023-12-04T09:49:44;93439.00;;;1.32;58.91
6198;BME280;3132;42.622;23.328;2023-12-04T09:52:10;93432.56;;;1.10;58.92
6198;BME280;3132;42.622;23.328;2023-12-04T09:54:37;93423.84;;;1.11;58.02
6198;BME280;3132;42.622;23.328;2023-12-04T09:57:04;93424.75;;;1.36;58.10
6198;BME280;3132;42.622;23.328;2023-12-04T09:59:30;93422.44;;;1.15;60.30
6198;BME280;3132;42.622;23.328;2023-12-04T10:01:57;93426.53;;;1.42;59.50
6198;BME280;3132;42.622;23.328;2023-12-04T10:04:23;93405.03;;;1.24;56.04
6198;BME280;3132;42.622;23.328;2023-12-04T10:06:50;93404.63;;;1.20;57.42
6198;BME280;3132;42.622;23.328;2023-12-04T10:09:17;93412.94;;;1.16;57.39
6198;BME280;3132;42.622;23.328;2023-12-04T10:11:44;93412.94;;;1.16;60.66
6198;BME280;3132;42.622;23.328;2023-12-04T10:14:20;93377.41;;;1.50;59.55
6198;BME280;3132;42.622;23.328;2023-12-04T10:16:46;93408.94;;;1.84;58.67
6198;BME280;3132;42.622;23.328;2023-12-04T10:21:49;93382.81;;;1.29;59.37
6198;BME280;3132;42.622;23.328;2023-12-04T10:26:56;93402.78;;;1.34;60.46
6198;BME280;3132;42.622;23.328;2023-12-04T10:29:22;93409.34;;;1.23;59.25
6198;BME280;3132;42.622;23.328;2023-12-04T10:31:50;93381.44;;;1.40;58.84
6198;BME280;3132;42.622;23.328;2023-12-04T10:34:16;93399.53;;;1.64;59.14
6198;BME280;3132;42.622;23.328;2023-12-04T10:36:41;93384.00;;;2.09;59.60
6198;BME280;3132;42.622;23.328;2023-12-04T10:39:07;93394.09;;;1.79;57.73
6198;BME280;3132;42.622;23.328;2023-12-04T10:41:32;93390.69;;;1.47;59.24
6198;BME280;3132;42.622;23.328;2023-12-04T10:43:58;93382.66;;;1.68;60.45
6198;BME280;3132;42.622;23.328;2023-12-04T10:46:24;93383.50;;;1.62;61.54
6198;BME280;3132;42.622;23.328;2023-12-04T10:48:50;93386.84;;;2.01;58.83
6198;BME280;3132;42.622;23.328;2023-12-04T10:51:17;93370.19;;;2.03;59.09
6198;BME280;3132;42.622;23.328;2023-12-04T10:53:43;93385.84;;;2.33;57.64
6198;BME280;3132;42.622;23.328;2023-12-04T10:56:10;93386.25;;;2.30;57.24
6198;BME280;3132;42.622;23.328;2023-12-04T10:58:39;93387.94;;;2.18;57.17
6198;BME280;3132;42.622;23.328;2023-12-04T11:01:07;93394.88;;;2.42;56.31
6198;BME280;3132;42.622;23.328;2023-12-04T11:03:44;93388.66;;;2.25;57.60
6198;BME280;3132;42.622;23.328;2023-12-04T11:06:16;93368.03;;;1.69;59.23
6198;BME280;3132;42.622;23.328;2023-12-04T11:08:42;93391.59;;;2.04;59.40
6198;BME280;3132;42.622;23.328;2023-12-04T11:11:12;93384.25;;;2.32;58.70
6198;BME280;3132;42.622;23.328;2023-12-04T11:13:41;93388.47;;;2.51;58.09
6198;BME280;3132;42.622;23.328;2023-12-04T11:18:43;93386.97;;;2.86;55.50
6198;BME280;3132;42.622;23.328;2023-12-04T11:21:10;93353.75;;;2.53;56.01
6198;BME280;3132;42.622;23.328;2023-12-04T11:23:37;93376.78;;;2.73;57.57
6198;BME280;3132;42.622;23.328;2023-12-04T11:26:03;93376.06;;;2.84;55.80
6198;BME280;3132;42.622;23.328;2023-12-04T11:28:31;93370.66;;;2.92;55.69
6198;BME280;3132;42.622;23.328;2023-12-04T11:30:58;93357.00;;;2.67;57.86
6198;BME280;3132;42.622;23.328;2023-12-04T11:33:24;93331.34;;;2.54;58.38
6198;BME280;3132;42.622;23.328;2023-12-04T11:35:50;93302.69;;;1.95;58.34
6198;BME280;3132;42.622;23.328;2023-12-04T11:38:19;93336.13;;;2.26;59.77
6198;BME280;3132;42.622;23.328;2023-12-04T11:40:46;93347.81;;;2.28;59.03
6198;BME280;3132;42.622;23.328;2023-12-04T11:43:30;93350.91;;;2.37;58.26
6198;BME280;3132;42.622;23.328;2023-12-04T11:46:09;93346.25;;;2.27;58.80
6198;BME280;3132;42.622;23.328;2023-12-04T11:48:38;93344.66;;;2.26;59.17
6198;BME280;3132;42.622;23.328;2023-12-04T11:51:05;93326.97;;;2.54;61.02
6198;BME280;3132;42.622;23.328;2023-12-04T11:53:32;93291.28;;;2.58;58.73
6198;BME280;3132;42.622;23.328;2023-12-04T11:55:58;93345.31;;;3.25;57.07
6198;BME280;3132;42.622;23.328;2023-12-04T11:58:41;93321.88;;;3.26;56.32
6198;BME280;3132;42.622;23.328;2023-12-04T12:01:07;93339.63;;;3.35;55.85
6198;BME280;3132;42.622;23.328;2023-12-04T12:03:32;93324.22;;;3.28;55.52
6198;BME280;3132;42.622;23.328;2023-12-04T12:05:57;93337.28;;;3.33;55.56
6198;BME280;3132;42.622;23.328;2023-12-04T12:08:23;93329.81;;;3.25;56.32
6198;BME280;3132;42.622;23.328;2023-12-04T12:10:49;93321.50;;;3.23;56.35
6198;BME280;3132;42.622;23.328;2023-12-04T12:13:15;93329.16;;;3.11;57.76
6198;BME280;3132;42.622;23.328;2023-12-04T12:15:40;93305.81;;;2.88;57.08
6198;BME280;3132;42.622;23.328;2023-12-04T12:18:06;93320.28;;;3.25;56.75
6198;BME280;3132;42.622;23.328;2023-12-04T12:20:31;93313.56;;;3.24;57.81
6198;BME280;3132;42.622;23.328;2023-12-04T12:22:58;93315.88;;;3.44;56.11
6198;BME280;3132;42.622;23.328;2023-12-04T12:25:23;93316.16;;;3.06;56.96
6198;BME280;3132;42.622;23.328;2023-12-04T12:27:50;93308.19;;;2.90;56.97
6198;BME280;3132;42.622;23.328;2023-12-04T12:30:15;93306.19;;;2.92;58.43
6198;BME280;3132;42.622;23.328;2023-12-04T12:32:41;93301.44;;;3.07;59.34
6198;BME280;3132;42.622;23.328;2023-12-04T12:35:07;93292.84;;;3.31;56.92
6198;BME280;3132;42.622;23.328;2023-12-04T12:37:38;93299.16;;;2.99;57.26
6198;BME280;3132;42.622;23.328;2023-12-04T12:40:05;93291.22;;;2.82;57.65
6198;BME280;3132;42.622;23.328;2023-12-04T12:42:30;93291.56;;;3.22;57.34
6198;BME280;3132;42.622;23.328;2023-12-04T12:45:00;93295.81;;;3.46;57.32
6198;BME280;3132;42.622;23.328;2023-12-04T12:47:27;93286.44;;;3.63;56.25
6198;BME280;3132;42.622;23.328;2023-12-04T12:49:52;93297.56;;;3.34;57.41
6198;BME280;3132;42.622;23.328;2023-12-04T12:52:19;93245.38;;;3.32;57.00
6198;BME280;3132;42.622;23.328;2023-12-04T12:54:45;93298.34;;;3.35;58.21
6198;BME280;3132;42.622;23.328;2023-12-04T12:57:11;93289.97;;;3.21;57.31
6198;BME280;3132;42.622;23.328;2023-12-04T12:59:38;93288.38;;;3.38;58.81
6198;BME280;3132;42.622;23.328;2023-12-04T13:02:04;93260.34;;;3.42;56.94
6198;BME280;3132;42.622;23.328;2023-12-04T13:04:40;93275.34;;;3.63;56.98
6198;BME280;3132;42.622;23.328;2023-12-04T13:07:05;93292.31;;;3.70;58.04
6198;BME280;3132;42.622;23.328;2023-12-04T13:09:35;93282.97;;;3.10;59.58
6198;BME280;3132;42.622;23.328;2023-12-04T13:12:04;93285.00;;;3.08;60.71
6198;BME280;3132;42.622;23.328;2023-12-04T13:14:29;93277.78;;;3.28;60.68
6198;BME280;3132;42.622;23.328;2023-12-04T13:16:55;93252.94;;;3.15;62.01
6198;BME280;3132;42.622;23.328;2023-12-04T13:19:22;93282.28;;;3.33;63.54